Time;durP1;ratioP1;P1;durP2;ratioP2;P2;SDS_P1;SDS_P2;PMS_P1;PMS_P2;Temp;Humidity;BMP_temperature;BMP_pressure;BME280_temperature;BME280_humidity;BME280_pressure;Samples;Min_cycle;Max_cycle;Signal;HPM_P1;HPM_P2
2022/08/29 00:02:23;;;;;;;5.70;2.38;;;21.90;63.90;;;;;;5127962;27;20027;-76
2022/08/29 00:04:48;;;;;;;6.43;2.22;;;21.90;63.90;;;;;;5131661;27;20805;-76
2022/08/29 00:07:14;;;;;;;6.72;2.53;;;21.80;63.60;;;;;;5119707;27;20023;-76
2022/08/29 00:09:39;;;;;;;8.80;2.80;;;21.90;63.70;;;;;;5131669;27;20023;-77
2022/08/29 00:12:05;;;;;;;6.25;2.70;;;21.80;64.30;;;;;;5127208;27;20160;-76
2022/08/29 00:14:31;;;;;;;5.82;2.40;;;21.90;63.80;;;;;;5128265;27;20027;-76
2022/08/29 00:16:57;;;;;;;7.45;2.50;;;21.80;64.00;;;;;;5124312;27;20068;-76
2022/08/29 00:19:22;;;;;;;5.72;2.20;;;21.80;66.00;;;;;;5127083;27;20027;-78
2022/08/29 00:21:48;;;;;;;6.78;2.53;;;21.90;65.40;;;;;;5127516;27;20031;-77
2022/08/29 00:24:14;;;;;;;5.22;2.30;;;21.80;65.30;;;;;;5130315;27;20021;-77
2022/08/29 00:26:40;;;;;;;7.43;2.20;;;21.90;64.90;;;;;;5128232;27;20015;-77
2022/08/29 00:29:05;;;;;;;5.53;2.50;;;21.90;64.80;;;;;;5129779;27;20087;-76
2022/08/29 00:31:31;;;;;;;6.80;2.50;;;21.90;64.60;;;;;;5129865;27;20530;-77
2022/08/29 00:33:56;;;;;;;6.60;2.08;;;21.90;64.20;;;;;;5130367;27;20041;-77
2022/08/29 00:36:23;;;;;;;6.28;2.05;;;21.80;63.90;;;;;;5125358;27;20031;-77
2022/08/29 00:38:49;;;;;;;7.10;2.17;;;21.80;63.80;;;;;;5131534;27;20031;-77
2022/08/29 00:41:15;;;;;;;5.93;2.40;;;21.80;63.80;;;;;;5128911;27;20391;-77
2022/08/29 00:43:40;;;;;;;7.47;2.80;;;21.80;64.10;;;;;;5126250;27;20023;-76
2022/08/29 00:46:30;;;;;;;6.63;2.33;;;21.80;64.10;;;;;;5124769;27;20395;-76
2022/08/29 00:48:59;;;;;;;5.35;2.30;;;21.80;64.10;;;;;;5131605;27;20019;-77
2022/08/29 00:51:25;;;;;;;5.70;2.20;;;21.70;63.80;;;;;;5113073;28;20075;-77
2022/08/29 00:53:59;;;;;;;5.32;2.25;;;21.80;63.60;;;;;;5127956;28;20035;-76
2022/08/29 00:56:25;;;;;;;5.22;2.25;;;21.70;64.00;;;;;;5130257;28;20022;-76
2022/08/29 00:58:56;;;;;;;5.70;2.20;;;21.70;63.80;;;;;;5131122;28;20024;-76
2022/08/29 01:01:22;;;;;;;6.47;2.35;;;21.70;64.80;;;;;;5113137;28;20011;-77
2022/08/29 01:03:48;;;;;;;5.32;2.35;;;21.60;65.00;;;;;;5130511;28;20122;-77
2022/08/29 01:06:14;;;;;;;6.43;2.40;;;21.60;65.30;;;;;;5119841;28;20086;-76
2022/08/29 01:08:40;;;;;;;7.07;2.50;;;21.60;65.20;;;;;;5131602;28;20027;-77
2022/08/29 01:13:59;;;;;;;5.25;2.33;;;21.70;65.20;;;;;;5102820;28;20075;-76
2022/08/29 01:16:26;;;;;;;6.55;2.55;;;21.80;64.90;;;;;;5120696;28;20031;-76
2022/08/29 01:18:57;;;;;;;6.03;2.42;;;21.80;64.70;;;;;;5127090;28;20059;-76
2022/08/29 01:21:43;;;;;;;6.07;2.28;;;21.80;64.50;;;;;;5116878;28;20072;-75
2022/08/29 01:24:15;;;;;;;7.35;2.60;;;21.70;64.20;;;;;;5130339;28;20031;-76
2022/08/29 01:26:41;;;;;;;;;;;21.70;64.10;;;;;;5131752;28;20031;-76
2022/08/29 01:29:07;;;;;;;5.82;2.40;;;21.60;64.00;;;;;;5116566;28;20352;-75
2022/08/29 01:31:45;;;;;;;6.47;2.40;;;21.60;64.10;;;;;;5125457;28;20024;-77
2022/08/29 01:34:12;;;;;;;5.88;2.42;;;21.60;64.20;;;;;;5129201;28;20028;-75
2022/08/29 01:36:46;;;;;;;6.45;2.42;;;21.60;64.10;;;;;;5131407;28;20094;-75
2022/08/29 01:39:12;;;;;;;6.30;2.30;;;21.60;64.10;;;;;;5131683;27;20438;-75
2022/08/29 01:41:37;;;;;;;6.82;2.50;;;21.60;63.90;;;;;;5130469;27;20559;-75
2022/08/29 01:44:09;;;;;;;5.90;2.25;;;21.50;64.10;;;;;;5134086;27;20054;-75
2022/08/29 01:46:35;;;;;;;6.53;2.33;;;21.50;63.90;;;;;;5134136;27;20076;-75
2022/08/29 01:49:04;;;;;;;7.28;2.63;;;21.60;64.00;;;;;;5134268;27;20039;-75
2022/08/29 01:51:30;;;;;;;6.00;2.60;;;21.50;64.60;;;;;;5134296;27;20575;-76
2022/08/29 01:53:56;;;;;;;6.70;2.55;;;21.50;65.20;;;;;;5133612;27;20120;-75
2022/08/29 01:56:27;;;;;;;7.25;2.72;;;21.50;65.10;;;;;;5134952;27;20081;-75
2022/08/29 01:58:53;;;;;;;;;;;21.50;65.40;;;;;;5130782;27;20030;-76
2022/08/29 02:01:23;;;;;;;6.63;2.60;;;21.60;65.30;;;;;;5134185;27;19915;-75
2022/08/29 02:03:48;;;;;;;5.72;2.35;;;21.60;64.90;;;;;;5109403;27;20561;-76
2022/08/29 02:06:14;;;;;;;7.05;2.50;;;21.50;64.60;;;;;;5134513;27;20031;-75
2022/08/29 02:08:42;;;;;;;7.60;2.50;;;21.50;64.80;;;;;;5123436;27;20421;-76
2022/08/29 02:11:09;;;;;;;7.45;2.78;;;21.50;64.00;;;;;;5133992;27;20395;-76
2022/08/29 02:13:41;;;;;;;7.22;2.67;;;21.50;63.70;;;;;;5114393;27;20027;-75
2022/08/29 02:16:07;;;;;;;7.55;2.28;;;21.50;63.60;;;;;;5127387;27;20487;-75
2022/08/29 02:18:33;;;;;;;6.85;2.60;;;21.50;63.20;;;;;;5124490;27;20019;-75
2022/08/29 02:21:00;;;;;;;5.55;2.42;;;21.50;63.40;;;;;;5133500;27;20034;-76
2022/08/29 02:23:25;;;;;;;7.35;2.65;;;21.50;63.20;;;;;;5124386;27;20026;-75
2022/08/29 02:25:52;;;;;;;6.60;2.40;;;21.40;63.50;;;;;;5132649;27;20031;-75
2022/08/29 02:28:19;;;;;;;7.03;2.55;;;21.50;63.40;;;;;;5125090;27;20027;-76
2022/08/29 02:30:47;;;;;;;8.25;2.60;;;21.40;63.50;;;;;;5114064;27;20023;-76
2022/08/29 02:33:14;;;;;;;6.15;2.60;;;21.40;64.30;;;;;;5133433;27;20083;-76
2022/08/29 02:35:40;;;;;;;7.72;2.40;;;21.40;63.80;;;;;;5122931;27;20019;-76
2022/08/29 02:38:06;;;;;;;4.70;2.30;;;21.30;64.00;;;;;;5133485;27;20513;-77
2022/08/29 02:40:33;;;;;;;6.32;2.70;;;21.30;65.10;;;;;;5130860;27;20016;-77
2022/08/29 02:42:59;;;;;;;7.00;2.35;;;21.30;65.50;;;;;;5118842;27;20098;-77
2022/08/29 02:45:25;;;;;;;6.75;2.60;;;21.30;65.00;;;;;;5117088;27;20041;-76
2022/08/29 02:47:52;;;;;;;7.30;2.80;;;21.30;65.50;;;;;;5132203;27;20495;-76
2022/08/29 02:50:17;;;;;;;6.18;2.50;;;21.40;64.60;;;;;;5111361;27;20019;-76
2022/08/29 02:52:43;;;;;;;8.40;2.78;;;21.30;64.50;;;;;;5130714;27;20084;-76
2022/08/29 02:55:15;;;;;;;5.82;2.35;;;21.30;64.50;;;;;;5133092;27;20034;-76
2022/08/29 02:57:44;;;;;;;6.57;2.53;;;21.40;63.90;;;;;;5128943;27;20031;-76
2022/08/29 03:00:15;;;;;;;7.63;2.65;;;21.40;63.70;;;;;;5132471;27;20513;-76
2022/08/29 03:02:45;;;;;;;6.65;2.33;;;21.40;63.60;;;;;;5124812;27;20027;-77
2022/08/29 03:05:10;;;;;;;8.13;2.72;;;21.40;63.80;;;;;;5120791;27;20559;-76
2022/08/29 03:07:36;;;;;;;7.40;2.78;;;21.30;63.80;;;;;;5125003;27;20034;-76
2022/08/29 03:10:03;;;;;;;7.97;2.38;;;21.30;64.10;;;;;;5126043;27;20236;-75
2022/08/29 03:12:28;;;;;;;5.88;2.30;;;21.30;64.10;;;;;;5132963;27;20022;-75
2022/08/29 03:14:54;;;;;;;6.78;2.50;;;21.30;64.50;;;;;;5131701;27;20102;-76
2022/08/29 03:17:19;;;;;;;5.93;2.25;;;21.30;64.40;;;;;;5114773;27;20151;-76
2022/08/29 03:19:45;;;;;;;6.50;2.25;;;21.30;64.10;;;;;;5129567;27;20027;-77
2022/08/29 03:22:10;;;;;;;6.80;2.60;;;21.30;64.50;;;;;;5131436;27;20026;-75
2022/08/29 03:24:36;;;;;;;6.85;2.67;;;21.30;65.00;;;;;;5132783;27;20106;-75
2022/08/29 03:27:02;;;;;;;6.30;2.40;;;21.30;64.50;;;;;;5132992;27;20507;-76
2022/08/29 03:29:28;;;;;;;7.50;2.50;;;21.30;65.50;;;;;;5131392;27;20034;-75
2022/08/29 03:31:57;;;;;;;5.97;2.10;;;21.30;65.10;;;;;;5119866;27;20032;-76
2022/08/29 03:34:23;;;;;;;6.07;2.60;;;21.30;65.20;;;;;;5116770;27;20022;-76
2022/08/29 03:36:49;;;;;;;7.88;2.55;;;21.30;65.50;;;;;;5126961;27;20038;-75
2022/08/29 03:39:15;;;;;;;6.03;2.53;;;21.30;65.10;;;;;;5127798;27;20023;-76
2022/08/29 03:41:41;;;;;;;6.22;2.50;;;21.30;64.70;;;;;;5132236;27;20034;-75
2022/08/29 03:44:06;;;;;;;6.00;2.53;;;21.30;64.60;;;;;;5130958;27;20031;-76
2022/08/29 03:46:34;;;;;;;6.53;2.38;;;21.30;64.30;;;;;;5131313;27;20031;-76
2022/08/29 03:49:00;;;;;;;5.38;2.10;;;21.30;64.30;;;;;;5138920;27;20505;-75
2022/08/29 03:51:25;;;;;;;7.35;2.53;;;21.30;64.40;;;;;;5130151;27;20031;-76
2022/08/29 03:53:51;;;;;;;7.85;2.60;;;21.30;64.60;;;;;;5132411;27;20436;-76
2022/08/29 03:56:16;;;;;;;7.20;2.65;;;21.20;65.00;;;;;;5118037;27;20038;-76
2022/08/29 03:58:42;;;;;;;6.85;2.53;;;21.30;64.80;;;;;;5129065;27;20555;-77
2022/08/29 04:01:08;;;;;;;7.32;2.47;;;21.30;64.80;;;;;;5114538;27;20020;-75
2022/08/29 04:03:34;;;;;;;8.23;2.38;;;21.20;64.70;;;;;;5122485;27;20027;-76
2022/08/29 04:06:00;;;;;;;6.40;2.50;;;21.20;64.90;;;;;;5128222;27;20031;-76
2022/08/29 04:08:25;;;;;;;6.20;2.42;;;21.20;65.30;;;;;;5122821;27;20099;-76
2022/08/29 04:10:51;;;;;;;6.35;2.72;;;21.20;65.60;;;;;;5124256;27;20027;-76
2022/08/29 04:13:16;;;;;;;6.07;2.60;;;21.20;65.60;;;;;;5130934;27;20044;-76
2022/08/29 04:15:42;;;;;;;6.93;2.40;;;21.20;65.50;;;;;;5127207;27;20448;-76
2022/08/29 04:18:09;;;;;;;7.80;2.63;;;21.20;65.90;;;;;;5127284;27;20069;-75
2022/08/29 04:20:43;;;;;;;7.30;2.50;;;21.20;65.70;;;;;;5130958;27;20018;-76
2022/08/29 04:23:11;;;;;;;5.40;2.35;;;21.20;65.40;;;;;;5127604;27;20085;-76
2022/08/29 04:25:38;;;;;;;6.65;2.53;;;21.20;65.40;;;;;;5121955;27;20019;-75
2022/08/29 04:28:06;;;;;;;7.20;2.05;;;21.20;65.10;;;;;;5131676;27;20027;-75
2022/08/29 04:30:33;;;;;;;6.50;2.40;;;21.20;64.90;;;;;;5115586;27;20023;-76
2022/08/29 04:32:59;;;;;;;7.53;2.80;;;21.30;64.60;;;;;;5112554;27;20092;-77
2022/08/29 04:35:25;;;;;;;5.50;2.25;;;21.20;64.70;;;;;;5113018;27;20051;-76
2022/08/29 04:37:50;;;;;;;6.32;2.20;;;21.20;64.40;;;;;;5123764;27;20407;-75
2022/08/29 04:40:19;;;;;;;7.00;2.45;;;21.20;65.30;;;;;;5115978;27;20380;-76
2022/08/29 04:42:48;;;;;;;9.02;2.72;;;21.20;64.60;;;;;;5118253;27;20509;-76
2022/08/29 04:45:17;;;;;;;6.43;2.75;;;21.10;64.60;;;;;;5128916;27;20019;-75
2022/08/29 04:47:42;;;;;;;5.75;2.40;;;21.10;65.20;;;;;;5129641;27;20558;-76
2022/08/29 04:50:11;;;;;;;7.90;2.63;;;21.10;65.00;;;;;;5110917;27;20102;-76
2022/08/29 04:52:37;;;;;;;8.90;2.60;;;21.10;64.70;;;;;;5128847;27;20023;-76
2022/08/29 04:55:04;;;;;;;10.27;2.55;;;21.10;64.80;;;;;;5119358;28;20099;-75
2022/08/29 04:57:30;;;;;;;6.03;2.65;;;21.00;64.70;;;;;;5117087;28;20027;-75
2022/08/29 04:59:57;;;;;;;9.13;2.92;;;21.10;65.00;;;;;;5113300;28;20019;-76
2022/08/29 05:02:24;;;;;;;11.18;3.28;;;21.10;65.10;;;;;;5111621;28;20039;-72
2022/08/29 05:04:52;;;;;;;7.75;3.00;;;21.00;64.60;;;;;;5125104;27;20035;-80
2022/08/29 05:07:24;;;;;;;8.63;2.70;;;21.00;65.60;;;;;;5125839;28;20027;-79
2022/08/29 05:09:59;;;;;;;7.72;2.70;;;21.10;65.80;;;;;;5126435;28;20164;-76
2022/08/29 05:12:27;;;;;;;7.72;2.70;;;21.10;64.50;;;;;;5125423;28;20479;-75
2022/08/29 05:14:53;;;;;;;9.05;3.00;;;21.10;65.00;;;;;;5134470;27;20035;-76
2022/08/29 05:17:19;;;;;;;7.47;2.47;;;21.10;65.10;;;;;;5130728;27;20030;-76
2022/08/29 05:19:44;;;;;;;8.95;2.92;;;21.10;65.00;;;;;;5120102;27;20019;-77
2022/08/29 05:22:13;;;;;;;7.93;2.42;;;21.10;64.80;;;;;;5130763;27;20027;-74
2022/08/29 05:24:39;;;;;;;6.32;2.50;;;21.10;64.60;;;;;;5131387;27;20023;-75
2022/08/29 05:27:10;;;;;;;6.68;2.50;;;21.10;64.60;;;;;;5123273;27;20019;-73
2022/08/29 05:29:40;;;;;;;6.70;2.45;;;21.10;65.20;;;;;;5134971;27;20450;-76
2022/08/29 05:32:07;;;;;;;7.45;2.55;;;21.00;65.00;;;;;;5141420;22;20035;-84
2022/08/29 05:34:33;;;;;;;7.40;2.67;;;21.10;65.40;;;;;;5058398;28;20058;-84
2022/08/29 05:37:00;;;;;;;6.25;2.30;;;21.70;65.50;;;;;;5060312;28;20416;-77
2022/08/29 05:39:26;;;;;;;7.05;2.47;;;21.00;66.00;;;;;;5075685;28;20020;-77
2022/08/29 05:41:55;;;;;;;7.85;2.95;;;21.00;65.30;;;;;;5056835;28;20085;-77
2022/08/29 05:44:21;;;;;;;7.60;3.10;;;21.10;65.30;;;;;;5055256;28;20025;-78
2022/08/29 05:46:47;;;;;;;8.68;2.60;;;21.00;65.60;;;;;;5037942;28;20077;-78
2022/08/29 05:49:13;;;;;;;6.60;2.50;;;21.00;65.50;;;;;;5037602;28;20389;-78
2022/08/29 05:51:39;;;;;;;8.95;2.83;;;21.10;64.90;;;;;;5055138;28;20391;-77
2022/08/29 05:54:06;;;;;;;7.07;3.10;;;21.00;65.60;;;;;;5037417;28;20165;-77
2022/08/29 05:56:31;;;;;;;6.28;2.60;;;21.00;65.60;;;;;;5037770;28;20119;-78
2022/08/29 05:58:57;;;;;;;6.40;2.65;;;21.00;65.70;;;;;;5037572;28;20098;-78
2022/08/29 06:01:26;;;;;;;9.10;2.72;;;21.00;65.10;;;;;;5037522;28;20569;-77
2022/08/29 06:03:53;;;;;;;5.53;2.47;;;21.10;65.10;;;;;;5055272;28;20025;-77
2022/08/29 06:06:20;;;;;;;7.00;2.42;;;21.10;65.00;;;;;;5037126;28;20535;-77
2022/08/29 06:08:46;;;;;;;6.22;2.60;;;21.10;65.00;;;;;;5037466;28;20025;-77
2022/08/29 06:11:16;;;;;;;6.82;2.80;;;21.10;65.50;;;;;;5036978;28;20448;-77
2022/08/29 06:13:42;;;;;;;7.72;2.85;;;21.10;65.10;;;;;;5036946;28;20039;-77
2022/08/29 06:16:11;;;;;;;6.30;2.50;;;21.10;65.10;;;;;;5054909;28;20396;-78
2022/08/29 06:18:36;;;;;;;7.63;2.65;;;21.10;65.40;;;;;;5036919;28;20075;-77
2022/08/29 06:21:04;;;;;;;5.97;2.75;;;21.10;65.50;;;;;;5036856;28;20025;-77
2022/08/29 06:23:29;;;;;;;7.13;2.83;;;21.00;65.30;;;;;;5054859;28;20056;-77
2022/08/29 06:25:56;;;;;;;6.97;2.47;;;21.10;65.30;;;;;;5036313;28;20053;-78
2022/08/29 06:28:21;;;;;;;7.00;3.10;;;21.00;65.10;;;;;;5036803;28;20025;-77
2022/08/29 06:30:47;;;;;;;6.60;2.67;;;21.10;65.90;;;;;;5036661;28;20512;-77
2022/08/29 06:33:12;;;;;;;7.05;2.75;;;21.00;65.80;;;;;;5036612;28;20029;-77
2022/08/29 06:35:38;;;;;;;7.15;2.97;;;21.00;65.90;;;;;;5036751;28;20036;-77
2022/08/29 06:38:04;;;;;;;6.82;2.80;;;21.10;65.70;;;;;;5036614;28;20017;-77
2022/08/29 06:40:29;;;;;;;7.78;3.05;;;21.10;66.20;;;;;;5036360;28;20111;-78
2022/08/29 06:42:55;;;;;;;7.13;2.72;;;21.00;66.40;;;;;;5036611;28;20021;-77
2022/08/29 06:45:20;;;;;;;6.82;2.70;;;21.10;66.50;;;;;;5036424;28;20033;-77
2022/08/29 06:47:46;;;;;;;6.53;2.80;;;21.00;66.40;;;;;;5054383;28;20021;-78
2022/08/29 06:50:13;;;;;;;7.32;2.88;;;21.00;66.40;;;;;;5054246;28;20090;-77
2022/08/29 06:52:38;;;;;;;6.10;2.75;;;21.00;66.30;;;;;;5036024;28;20432;-78
2022/08/29 06:55:09;;;;;;;7.38;2.88;;;21.00;66.30;;;;;;5036346;28;20021;-77
2022/08/29 06:57:35;;;;;;;5.82;2.58;;;21.00;66.00;;;;;;5054129;28;20027;-78
2022/08/29 07:00:00;;;;;;;6.65;2.80;;;21.00;66.10;;;;;;5036297;28;20025;-77
2022/08/29 07:02:26;;;;;;;7.05;2.90;;;21.00;66.10;;;;;;5053655;28;20493;-77
2022/08/29 07:04:51;;;;;;;6.50;2.85;;;21.00;66.20;;;;;;5036162;28;20123;-77
2022/08/29 07:07:17;;;;;;;6.22;2.60;;;21.10;66.50;;;;;;5053808;28;20040;-78
2022/08/29 07:09:43;;;;;;;9.07;2.90;;;21.00;66.20;;;;;;5036136;28;20024;-77
2022/08/29 07:12:08;;;;;;;6.65;2.70;;;21.00;66.30;;;;;;5053352;28;20047;-77
2022/08/29 07:14:34;;;;;;;5.88;2.45;;;21.00;66.50;;;;;;5053853;28;20017;-77
2022/08/29 07:16:59;;;;;;;6.43;2.55;;;21.00;66.40;;;;;;5035709;28;20040;-77
2022/08/29 07:19:25;;;;;;;6.85;3.00;;;21.10;66.60;;;;;;5035857;28;20397;-77
2022/08/29 07:21:53;;;;;;;6.25;2.78;;;21.10;66.70;;;;;;5053455;28;20025;-77
2022/08/29 07:24:18;;;;;;;8.68;3.03;;;21.10;66.70;;;;;;5035849;28;20039;-77
2022/08/29 07:26:45;;;;;;;6.30;2.50;;;21.10;66.70;;;;;;5035810;28;20497;-77
2022/08/29 07:29:15;;;;;;;6.65;2.65;;;21.10;66.50;;;;;;5035732;28;20036;-77
2022/08/29 07:31:41;;;;;;;5.87;2.47;;;21.20;66.40;;;;;;5053225;28;20052;-78
2022/08/29 07:34:07;;;;;;;8.68;3.05;;;21.20;66.00;;;;;;5053239;28;20033;-78
2022/08/29 07:36:33;;;;;;;7.03;2.63;;;21.30;65.90;;;;;;5034921;28;20021;-78
2022/08/29 07:38:59;;;;;;;6.95;2.92;;;21.40;65.90;;;;;;5035526;28;20055;-77
2022/08/29 07:41:25;;;;;;;7.88;3.15;;;21.50;65.80;;;;;;5053166;28;20021;-78
2022/08/29 07:43:51;;;;;;;6.43;2.97;;;21.50;65.80;;;;;;5035631;28;20025;-77
2022/08/29 07:46:18;;;;;;;6.03;2.90;;;21.50;65.50;;;;;;5053436;28;20051;-77
2022/08/29 07:48:44;;;;;;;7.55;2.90;;;21.50;65.70;;;;;;5053218;28;20029;-78
2022/08/29 07:51:14;;;;;;;7.20;2.80;;;21.60;65.80;;;;;;5035174;28;20060;-78
2022/08/29 07:53:40;;;;;;;7.75;2.83;;;21.50;65.80;;;;;;5035191;28;20033;-77
2022/08/29 07:56:08;;;;;;;7.00;2.80;;;21.50;65.80;;;;;;5035427;28;20039;-78
2022/08/29 07:58:34;;;;;;;6.57;2.85;;;21.50;65.90;;;;;;5035296;28;20027;-79
2022/08/29 08:01:00;;;;;;;5.50;2.63;;;21.50;66.10;;;;;;5051580;28;20064;-77
2022/08/29 08:03:26;;;;;;;6.00;2.50;;;21.50;66.20;;;;;;5034850;28;20427;-78
2022/08/29 08:05:52;;;;;;;6.60;3.20;;;21.50;66.20;;;;;;5034910;28;20036;-77
2022/08/29 08:08:17;;;;;;;7.93;3.10;;;21.50;66.00;;;;;;5052844;28;20029;-79
2022/08/29 08:10:43;;;;;;;6.47;2.70;;;21.60;66.10;;;;;;5052343;28;20702;-77
2022/08/29 08:13:09;;;;;;;7.07;2.83;;;21.60;66.20;;;;;;5035224;28;20033;-78
2022/08/29 08:15:37;;;;;;;8.15;2.70;;;21.60;66.30;;;;;;5034912;28;20100;-77
2022/08/29 08:18:02;;;;;;;6.20;2.80;;;21.60;66.30;;;;;;5052763;28;20082;-78
2022/08/29 08:20:28;;;;;;;6.95;3.17;;;21.50;66.20;;;;;;5052522;28;20107;-77
2022/08/29 08:22:53;;;;;;;6.63;2.80;;;21.60;66.30;;;;;;5052352;28;20052;-78
2022/08/29 08:25:19;;;;;;;6.45;2.72;;;21.70;66.40;;;;;;5034820;28;20493;-77
2022/08/29 08:27:44;;;;;;;6.30;2.72;;;21.70;66.20;;;;;;5034722;28;20052;-78
2022/08/29 08:30:11;;;;;;;7.07;2.88;;;21.80;66.30;;;;;;5034571;28;20431;-77
2022/08/29 08:32:36;;;;;;;7.25;2.75;;;21.80;66.30;;;;;;5051835;28;20495;-79
2022/08/29 08:35:02;;;;;;;6.70;2.78;;;21.70;66.30;;;;;;5034595;28;20029;-78
2022/08/29 08:37:28;;;;;;;6.82;3.00;;;21.70;66.40;;;;;;5052311;28;20014;-78
2022/08/29 08:39:58;;;;;;;6.20;2.90;;;21.70;66.50;;;;;;5052187;28;20029;-77
2022/08/29 08:42:41;;;;;;;5.80;2.67;;;21.80;66.60;;;;;;5052165;28;20021;-78
2022/08/29 08:45:15;;;;;;;6.30;2.70;;;21.80;66.60;;;;;;5052257;28;20036;-77
2022/08/29 08:47:47;;;;;;;8.40;3.00;;;21.80;67.20;;;;;;5034459;28;20044;-77
2022/08/29 08:50:24;;;;;;;7.50;2.90;;;21.90;66.70;;;;;;5034212;28;20025;-77
2022/08/29 08:53:01;;;;;;;6.82;2.78;;;21.90;67.00;;;;;;5034362;28;20029;-78
2022/08/29 08:55:33;;;;;;;5.28;2.40;;;21.90;66.90;;;;;;5052191;28;20147;-77
2022/08/29 08:58:11;;;;;;;6.43;2.70;;;21.90;67.00;;;;;;5052115;28;20025;-77
2022/08/29 09:00:57;;;;;;;5.78;2.67;;;22.00;67.00;;;;;;5033874;28;20825;-77
2022/08/29 09:03:25;;;;;;;6.22;2.72;;;22.00;67.00;;;;;;5051825;28;20029;-78
2022/08/29 09:06:09;;;;;;;7.90;3.00;;;22.00;67.10;;;;;;5034320;28;20401;-77
2022/08/29 09:09:00;;;;;;;5.60;2.88;;;22.00;67.10;;;;;;5052062;28;20029;-77
2022/08/29 09:11:53;;;;;;;6.10;2.72;;;22.10;67.00;;;;;;5051714;28;20025;-77
2022/08/29 09:14:33;;;;;;;5.63;2.63;;;22.20;67.00;;;;;;5051966;28;20029;-78
2022/08/29 09:17:00;;;;;;;9.00;3.85;;;22.20;66.80;;;;;;5052029;28;20024;-77
2022/08/29 09:19:25;;;;;;;5.45;2.60;;;22.20;66.90;;;;;;5034065;28;20078;-78
2022/08/29 09:22:05;;;;;;;7.30;2.53;;;22.20;67.00;;;;;;5033811;28;20459;-77
2022/08/29 09:24:39;;;;;;;6.47;2.70;;;22.10;67.30;;;;;;5051984;28;20021;-77
2022/08/29 09:27:05;;;;;;;6.80;2.83;;;22.00;68.00;;;;;;5051801;28;20033;-78
2022/08/29 09:29:31;;;;;;;8.02;3.10;;;22.00;67.50;;;;;;5033699;28;20021;-78
2022/08/29 09:32:09;;;;;;;6.22;2.70;;;22.00;67.70;;;;;;5033328;28;20021;-78
2022/08/29 09:34:43;;;;;;;5.88;2.58;;;21.90;67.80;;;;;;5051884;28;20587;-77
2022/08/29 09:37:30;;;;;;;8.05;2.95;;;21.90;67.90;;;;;;5051991;28;20021;-79
2022/08/29 09:40:10;;;;;;;5.70;2.60;;;21.90;68.10;;;;;;5033581;28;20026;-78
2022/08/29 09:42:39;;;;;;;5.13;2.63;;;21.90;68.40;;;;;;5033408;28;20020;-78
2022/08/29 09:45:25;;;;;;;5.90;2.60;;;21.90;68.50;;;;;;5051479;28;20374;-77
2022/08/29 09:48:14;;;;;;;8.25;2.80;;;21.80;68.60;;;;;;5051232;28;20048;-78
2022/08/29 09:50:40;;;;;;;6.47;2.50;;;21.80;68.70;;;;;;5051386;28;20094;-78
2022/08/29 09:53:06;;;;;;;5.18;2.55;;;21.80;68.90;;;;;;5034765;28;20318;-78
2022/08/29 09:55:36;;;;;;;8.75;3.45;;;21.80;68.80;;;;;;5034284;28;20017;-78
2022/08/29 09:58:06;;;;;;;6.00;2.40;;;21.80;69.20;;;;;;5034284;28;20025;-78
2022/08/29 10:00:38;;;;;;;5.47;2.80;;;21.70;69.00;;;;;;5053019;28;20024;-77
2022/08/29 10:03:08;;;;;;;6.38;2.63;;;21.80;69.00;;;;;;5055102;28;20298;-77
2022/08/29 10:05:41;;;;;;;6.95;2.63;;;21.80;69.10;;;;;;5037678;28;20552;-78
2022/08/29 10:08:24;;;;;;;6.05;2.45;;;21.80;69.20;;;;;;5037407;28;20025;-77
2022/08/29 10:10:54;;;;;;;5.10;2.33;;;21.80;69.30;;;;;;5037208;28;20032;-77
2022/08/29 10:13:26;;;;;;;6.10;2.60;;;21.80;68.80;;;;;;5037371;28;20115;-77
2022/08/29 10:16:32;;;;;;;4.97;2.30;;;21.80;69.00;;;;;;5055108;28;20056;-78
2022/08/29 10:19:01;;;;;;;7.20;2.53;;;21.80;68.90;;;;;;4974232;28;20030;-77
2022/08/29 10:21:45;;;;;;;6.00;2.35;;;21.70;69.10;;;;;;4957744;28;20023;-77
2022/08/29 10:24:38;;;;;;;7.25;2.65;;;21.70;69.50;;;;;;5013851;28;20040;-78
2022/08/29 10:27:26;;;;;;;5.38;2.38;;;21.70;69.50;;;;;;5054368;28;20100;-79
2022/08/29 10:30:08;;;;;;;6.13;2.60;;;21.70;69.50;;;;;;5054691;28;20013;-78
2022/08/29 10:33:18;;;;;;;6.45;2.58;;;21.70;69.80;;;;;;5036511;28;20029;-77
2022/08/29 10:36:12;;;;;;;6.07;2.35;;;21.70;69.60;;;;;;5054902;28;20021;-77
2022/08/29 10:39:00;;;;;;;6.18;2.30;;;21.80;70.10;;;;;;5054414;28;20025;-77
2022/08/29 10:41:31;;;;;;;7.35;2.35;;;21.80;69.90;;;;;;5036301;28;20482;-78
2022/08/29 10:44:27;;;;;;;6.35;2.60;;;21.80;70.00;;;;;;5036551;28;20032;-77
2022/08/29 10:47:08;;;;;;;5.05;2.38;;;21.80;69.80;;;;;;5054208;28;20029;-77
2022/08/29 10:50:20;;;;;;;4.85;2.40;;;21.90;69.70;;;;;;5036975;28;20029;-78
2022/08/29 10:53:06;;;;;;;5.25;2.30;;;22.00;69.70;;;;;;5053551;28;20133;-78
2022/08/29 10:55:59;;;;;;;6.32;2.25;;;22.10;69.60;;;;;;5036358;28;20478;-78
2022/08/29 10:58:37;;;;;;;5.22;2.17;;;22.10;69.20;;;;;;5054361;28;20036;-77
2022/08/29 11:01:14;;;;;;;6.15;2.50;;;22.10;69.10;;;;;;5035899;28;20029;-78
2022/08/29 11:03:48;;;;;;;4.50;2.30;;;22.20;69.40;;;;;;5036265;28;20025;-77
2022/08/29 11:06:22;;;;;;;6.72;2.50;;;22.10;69.40;;;;;;5036001;28;20392;-77
2022/08/29 11:08:57;;;;;;;6.28;2.38;;;22.10;69.60;;;;;;5036201;28;20028;-78
2022/08/29 11:11:24;;;;;;;4.97;2.30;;;22.10;69.80;;;;;;5053592;28;20029;-78
2022/08/29 11:13:55;;;;;;;5.78;2.50;;;22.00;70.00;;;;;;5036024;28;20025;-78
2022/08/29 11:16:37;;;;;;;6.22;2.38;;;22.00;70.00;;;;;;5035900;28;20033;-77
2022/08/29 11:19:23;;;;;;;6.03;2.50;;;22.00;70.10;;;;;;5035756;28;20056;-78
2022/08/29 11:22:11;;;;;;;5.25;2.50;;;21.90;70.00;;;;;;5035511;28;20104;-78
2022/08/29 11:24:38;;;;;;;4.97;2.33;;;21.90;70.20;;;;;;5053957;28;20022;-78
2022/08/29 11:27:07;;;;;;;6.75;2.50;;;21.90;70.40;;;;;;5035503;28;20029;-78
2022/08/29 11:29:53;;;;;;;6.45;2.60;;;21.90;70.50;;;;;;5035524;28;20029;-78
2022/08/29 11:32:46;;;;;;;7.40;2.33;;;21.90;70.50;;;;;;5034988;28;20025;-79
2022/08/29 11:35:27;;;;;;;6.63;2.60;;;21.90;70.70;;;;;;5035395;28;20024;-78
2022/08/29 11:38:22;;;;;;;4.65;2.45;;;22.00;70.70;;;;;;5053275;28;20520;-78
2022/08/29 11:41:05;;;;;;;5.63;2.50;;;22.00;70.40;;;;;;5034711;28;20473;-76
2022/08/29 11:43:38;;;;;;;6.32;2.47;;;22.00;70.40;;;;;;5035335;28;20504;-78
2022/08/29 11:46:07;;;;;;;5.15;2.30;;;22.00;70.30;;;;;;5035440;28;20029;-78
2022/08/29 11:48:32;;;;;;;5.65;2.58;;;22.10;70.30;;;;;;5052854;28;20183;-78
2022/08/29 11:50:58;;;;;;;5.90;2.28;;;22.00;70.20;;;;;;5052897;28;20048;-78
2022/08/29 11:53:33;;;;;;;5.88;2.65;;;22.00;70.50;;;;;;5035117;28;20494;-78
2022/08/29 11:56:11;;;;;;;7.55;3.03;;;22.00;70.40;;;;;;5035136;28;20052;-76
2022/08/29 11:58:39;;;;;;;6.13;2.72;;;22.00;71.00;;;;;;5052904;28;20028;-78
2022/08/29 12:01:07;;;;;;;4.95;2.28;;;21.90;70.70;;;;;;5034739;28;20052;-75
2022/08/29 12:03:33;;;;;;;6.20;2.58;;;21.90;70.70;;;;;;5052638;28;20035;-76
2022/08/29 12:06:14;;;;;;;4.80;2.20;;;21.90;71.00;;;;;;5052556;28;20028;-76
2022/08/29 12:08:58;;;;;;;;;;;21.90;70.80;;;;;;5035360;28;20025;-76
2022/08/29 12:11:57;;;;;;;5.95;2.47;;;22.00;70.90;;;;;;5034879;28;19905;-76
2022/08/29 12:14:33;;;;;;;;;;;21.90;70.90;;;;;;5035901;28;20123;-76
2022/08/29 12:17:02;;;;;;;6.22;2.72;;;21.90;71.00;;;;;;5034735;28;19905;-79
2022/08/29 12:19:50;;;;;;;6.15;2.58;;;21.90;70.80;;;;;;5034885;28;20497;-78
2022/08/29 12:22:50;;;;;;;5.45;2.10;;;21.90;70.80;;;;;;5034132;28;20118;-78
2022/08/29 12:25:26;;;;;;;6.50;2.58;;;21.90;70.90;;;;;;5034674;28;20032;-78
2022/08/29 12:28:30;;;;;;;6.05;2.58;;;21.90;70.90;;;;;;5052378;28;20021;-79
2022/08/29 12:30:58;;;;;;;5.95;2.78;;;22.00;71.00;;;;;;5034523;28;20021;-78
2022/08/29 12:33:45;;;;;;;6.88;2.55;;;22.00;70.80;;;;;;5034450;28;20037;-78
2022/08/29 12:36:29;;;;;;;5.03;2.50;;;22.00;70.90;;;;;;5034812;28;20028;-77
2022/08/29 12:39:15;;;;;;;5.40;2.42;;;22.00;70.80;;;;;;5034237;28;20104;-78
2022/08/29 12:42:14;;;;;;;6.60;2.50;;;22.00;70.90;;;;;;5052039;28;20029;-78
2022/08/29 12:44:47;;;;;;;6.03;2.63;;;22.00;71.20;;;;;;5034537;28;20497;-78
2022/08/29 12:47:24;;;;;;;6.75;2.75;;;21.90;71.20;;;;;;5034252;28;20046;-77
2022/08/29 12:49:55;;;;;;;5.88;2.70;;;21.90;71.30;;;;;;5052225;28;20032;-78
2022/08/29 12:52:31;;;;;;;6.10;3.00;;;21.90;71.20;;;;;;5034043;28;20094;-78
2022/08/29 12:55:15;;;;;;;6.53;2.97;;;21.90;71.40;;;;;;5034298;28;20485;-77
2022/08/29 12:57:43;;;;;;;6.55;2.70;;;21.90;71.30;;;;;;5052019;28;20033;-78
2022/08/29 13:00:18;;;;;;;6.88;2.88;;;21.90;71.30;;;;;;5034110;28;20028;-78
2022/08/29 13:03:17;;;;;;;5.88;2.92;;;22.00;71.20;;;;;;5051929;28;20378;-78
2022/08/29 13:05:43;;;;;;;6.13;2.90;;;21.90;71.30;;;;;;5039965;28;20044;-78
2022/08/29 13:08:12;;;;;;;6.50;3.20;;;21.90;71.30;;;;;;5052138;28;20398;-78
2022/08/29 13:10:51;;;;;;;6.47;2.70;;;21.90;71.20;;;;;;5033738;28;20040;-78